Time;durP1;ratioP1;P1;durP2;ratioP2;P2;SDS_P1;SDS_P2;PMS_P1;PMS_P2;Temp;Humidity;BMP_temperature;BMP_pressure;BME280_temperature;BME280_humidity;BME280_pressure;Samples;Min_cycle;Max_cycle;Signal;HPM_P1;HPM_P2
2022/06/22 00:01:06;;;;;;;28.10;17.67;;;;;;;;;;4947227;28;20034;-68
2022/06/22 00:03:34;;;;;;;26.70;16.90;;;;;;;;;;4949441;28;20327;-67
2022/06/22 00:05:59;;;;;;;28.20;16.65;;;;;;;;;;4951392;28;20088;-67
2022/06/22 00:08:29;;;;;;;26.75;17.67;;;;;;;;;;4952450;28;20035;-67
2022/06/22 00:10:54;;;;;;;25.70;16.60;;;;;;;;;;4950801;28;20066;-68
2022/06/22 00:13:21;;;;;;;25.10;16.83;;;;;;;;;;4951313;28;21869;-68
2022/06/22 00:15:48;;;;;;;22.92;15.60;;;;;;;;;;4951603;28;20448;-68
2022/06/22 00:18:31;;;;;;;23.75;16.27;;;;;;;;;;4964787;28;20036;-68
2022/06/22 00:20:58;;;;;;;23.40;17.85;;;;;;;;;;4950651;28;21692;-67
2022/06/22 00:23:32;;;;;;;26.13;16.95;;;;;;;;;;4950586;28;20108;-67
2022/06/22 00:26:18;;;;;;;25.83;17.40;;;;;;;;;;4951032;28;20218;-68
2022/06/22 00:28:52;;;;;;;25.75;17.17;;;;;;;;;;4950990;28;20366;-67
2022/06/22 00:31:26;;;;;;;26.20;17.20;;;;;;;;;;4950785;28;20031;-67
2022/06/22 00:34:05;;;;;;;27.85;17.00;;;;;;;;;;4951075;28;20035;-67
2022/06/22 00:36:46;;;;;;;27.65;17.83;;;;;;;;;;4951434;28;20554;-67
2022/06/22 00:39:14;;;;;;;27.17;18.75;;;;;;;;;;4949693;28;20261;-67
2022/06/22 00:41:40;;;;;;;26.67;17.77;;;;;;;;;;4950185;28;20172;-67
2022/06/22 00:44:07;;;;;;;22.75;15.73;;;;;;;;;;4950594;28;20054;-68
2022/06/22 00:46:33;;;;;;;24.73;16.75;;;;;;;;;;4951749;28;22170;-68
2022/06/22 00:48:58;;;;;;;24.52;16.25;;;;;;;;;;4952004;28;20062;-67
2022/06/22 00:51:27;;;;;;;20.58;15.32;;;;;;;;;;4950696;28;20039;-68
2022/06/22 00:53:58;;;;;;;23.00;15.48;;;;;;;;;;4947589;28;20128;-67
2022/06/22 00:56:42;;;;;;;24.65;17.25;;;;;;;;;;4949940;28;20380;-68
2022/06/22 00:59:26;;;;;;;27.92;19.27;;;;;;;;;;4965079;28;20034;-68
2022/06/22 01:01:56;;;;;;;27.00;17.80;;;;;;;;;;4949474;28;20049;-68
2022/06/22 01:04:28;;;;;;;28.25;18.55;;;;;;;;;;4949989;28;20041;-68
2022/06/22 01:06:55;;;;;;;25.38;16.30;;;;;;;;;;4949526;28;20088;-67
2022/06/22 01:09:32;;;;;;;23.60;17.80;;;;;;;;;;4949300;28;20056;-68
2022/06/22 01:12:18;;;;;;;26.85;18.08;;;;;;;;;;4949960;28;20044;-68
2022/06/22 01:14:54;;;;;;;26.70;17.25;;;;;;;;;;4955420;28;20163;-68
2022/06/22 01:17:24;;;;;;;25.50;17.60;;;;;;;;;;4949844;28;20580;-68
2022/06/22 01:19:49;;;;;;;30.48;20.85;;;;;;;;;;4949837;28;20103;-68
2022/06/22 01:22:22;;;;;;;28.17;20.65;;;;;;;;;;4950239;28;20495;-68
2022/06/22 01:24:47;;;;;;;36.13;23.42;;;;;;;;;;4949565;28;20034;-68
2022/06/22 01:27:18;;;;;;;28.00;20.73;;;;;;;;;;4942795;28;20412;-68
2022/06/22 01:30:04;;;;;;;28.35;20.45;;;;;;;;;;4961796;28;20065;-67
2022/06/22 01:32:34;;;;;;;29.98;20.58;;;;;;;;;;4942390;28;20208;-68
2022/06/22 01:35:00;;;;;;;28.05;21.05;;;;;;;;;;4949311;28;20054;-67
2022/06/22 01:37:30;;;;;;;29.40;21.30;;;;;;;;;;4950869;28;20556;-66
2022/06/22 01:40:14;;;;;;;30.63;21.05;;;;;;;;;;4949679;28;20489;-67
2022/06/22 01:42:56;;;;;;;32.05;22.00;;;;;;;;;;4950450;28;21242;-67
2022/06/22 01:45:24;;;;;;;29.42;21.92;;;;;;;;;;4954394;28;20870;-67
2022/06/22 01:48:16;;;;;;;30.38;20.83;;;;;;;;;;4949908;28;20362;-67
2022/06/22 01:50:48;;;;;;;29.92;19.73;;;;;;;;;;4943998;28;20391;-66
2022/06/22 01:53:35;;;;;;;28.15;20.88;;;;;;;;;;4948101;28;20035;-67
2022/06/22 01:56:00;;;;;;;26.17;18.27;;;;;;;;;;4950570;28;20120;-67
2022/06/22 01:58:34;;;;;;;27.17;19.08;;;;;;;;;;4950180;28;20270;-67
2022/06/22 02:01:14;;;;;;;27.65;18.23;;;;;;;;;;4947724;28;20065;-67
2022/06/22 02:03:43;;;;;;;30.70;20.10;;;;;;;;;;4946366;28;20366;-67
2022/06/22 02:09:02;;;;;;;30.63;20.80;;;;;;;;;;4949573;28;20037;-67
2022/06/22 02:11:32;;;;;;;28.23;19.45;;;;;;;;;;4949172;28;20033;-67
2022/06/22 02:14:02;;;;;;;32.65;23.05;;;;;;;;;;4948007;28;20246;-67
2022/06/22 02:16:39;;;;;;;29.92;20.80;;;;;;;;;;4948699;28;20042;-67
2022/06/22 02:19:04;;;;;;;30.67;20.75;;;;;;;;;;4949455;28;20030;-67
2022/06/22 02:21:46;;;;;;;32.65;21.13;;;;;;;;;;4948433;28;20413;-67
2022/06/22 02:24:31;;;;;;;34.00;22.60;;;;;;;;;;4948496;28;20144;-67
2022/06/22 02:27:20;;;;;;;32.28;21.48;;;;;;;;;;4947804;28;20699;-67
2022/06/22 02:29:46;;;;;;;31.13;21.23;;;;;;;;;;4947747;28;21852;-67
2022/06/22 02:32:16;;;;;;;30.42;20.30;;;;;;;;;;4948847;28;20037;-67
2022/06/22 02:34:47;;;;;;;29.85;18.70;;;;;;;;;;4950119;28;20535;-67
2022/06/22 02:37:12;;;;;;;32.55;20.85;;;;;;;;;;4949038;28;20042;-67
2022/06/22 02:39:43;;;;;;;31.55;20.52;;;;;;;;;;4963246;28;20306;-67
2022/06/22 02:44:53;;;;;;;25.33;18.52;;;;;;;;;;4948245;28;20045;-67
2022/06/22 02:47:27;;;;;;;31.90;19.30;;;;;;;;;;4956725;28;20120;-68
2022/06/22 02:49:55;;;;;;;26.00;19.00;;;;;;;;;;4948245;28;20072;-67
2022/06/22 02:52:22;;;;;;;27.45;19.15;;;;;;;;;;4948305;28;20419;-67
2022/06/22 02:54:55;;;;;;;27.90;18.65;;;;;;;;;;4962661;28;20045;-67
2022/06/22 02:57:26;;;;;;;27.85;18.50;;;;;;;;;;4949189;28;20042;-67
2022/06/22 02:59:52;;;;;;;27.15;17.38;;;;;;;;;;4948584;28;20039;-67
2022/06/22 03:02:20;;;;;;;27.95;19.65;;;;;;;;;;4947785;28;20037;-67
2022/06/22 03:04:51;;;;;;;30.10;18.75;;;;;;;;;;4947902;28;20288;-67
2022/06/22 03:07:17;;;;;;;26.55;18.35;;;;;;;;;;4948255;28;20042;-67
2022/06/22 03:09:42;;;;;;;29.42;18.52;;;;;;;;;;4950061;28;20338;-68
2022/06/22 03:12:10;;;;;;;29.00;18.80;;;;;;;;;;4947605;28;20097;-68
2022/06/22 03:14:42;;;;;;;26.80;18.52;;;;;;;;;;4949814;28;20089;-68
2022/06/22 03:17:11;;;;;;;36.15;22.20;;;;;;;;;;4946842;28;20874;-68
2022/06/22 03:19:40;;;;;;;32.60;21.95;;;;;;;;;;4948367;28;20052;-68
2022/06/22 03:22:06;;;;;;;32.17;21.67;;;;;;;;;;4948181;28;20041;-68
2022/06/22 03:24:52;;;;;;;32.70;21.40;;;;;;;;;;4948546;28;20141;-68
2022/06/22 03:27:20;;;;;;;29.10;21.88;;;;;;;;;;4947280;28;20034;-68
2022/06/22 03:29:55;;;;;;;39.00;23.25;;;;;;;;;;4947821;28;20541;-67
2022/06/22 03:32:24;;;;;;;30.67;21.17;;;;;;;;;;4945879;28;20050;-67
2022/06/22 03:34:57;;;;;;;29.27;19.77;;;;;;;;;;4948182;28;20054;-67
2022/06/22 03:37:30;;;;;;;29.95;19.95;;;;;;;;;;4946488;28;20065;-67
2022/06/22 03:39:57;;;;;;;34.80;21.00;;;;;;;;;;4947665;28;20034;-67
2022/06/22 03:42:28;;;;;;;33.35;21.27;;;;;;;;;;4947206;28;20566;-67
2022/06/22 03:44:56;;;;;;;35.27;21.13;;;;;;;;;;4946724;28;20677;-67
2022/06/22 03:47:24;;;;;;;29.02;20.10;;;;;;;;;;4947834;28;20379;-67
2022/06/22 03:49:56;;;;;;;33.33;21.73;;;;;;;;;;4948453;28;20045;-67
2022/06/22 03:52:39;;;;;;;27.25;20.70;;;;;;;;;;4968190;28;20072;-67
2022/06/22 03:55:07;;;;;;;33.35;21.70;;;;;;;;;;4966724;28;20053;-68
2022/06/22 03:57:39;;;;;;;31.98;20.77;;;;;;;;;;4965624;28;20042;-68
2022/06/22 04:00:05;;;;;;;26.02;19.50;;;;;;;;;;4966457;28;20069;-68
2022/06/22 04:02:31;;;;;;;25.88;18.55;;;;;;;;;;4967539;28;20431;-67
2022/06/22 04:04:58;;;;;;;31.67;20.55;;;;;;;;;;4961050;28;20393;-67
2022/06/22 04:07:24;;;;;;;30.67;19.13;;;;;;;;;;4947402;28;20354;-67
2022/06/22 04:09:57;;;;;;;28.30;19.08;;;;;;;;;;4948100;28;20157;-68
2022/06/22 04:12:25;;;;;;;29.88;19.73;;;;;;;;;;4946757;28;20073;-67
2022/06/22 04:15:05;;;;;;;31.73;20.88;;;;;;;;;;4947935;28;20046;-67
2022/06/22 04:17:35;;;;;;;33.55;20.77;;;;;;;;;;4966717;28;20537;-68
2022/06/22 04:20:04;;;;;;;34.55;21.45;;;;;;;;;;4968892;28;20647;-67
2022/06/22 04:22:32;;;;;;;32.30;20.98;;;;;;;;;;4951190;28;21928;-68
2022/06/22 04:25:04;;;;;;;29.02;19.63;;;;;;;;;;4946174;28;20045;-67
2022/06/22 04:27:38;;;;;;;28.70;19.48;;;;;;;;;;4947935;28;23906;-67
2022/06/22 04:30:10;;;;;;;33.45;21.02;;;;;;;;;;4947349;28;20038;-67
2022/06/22 04:32:38;;;;;;;33.72;21.23;;;;;;;;;;4946839;28;20038;-67
2022/06/22 04:35:06;;;;;;;28.40;19.92;;;;;;;;;;4946418;28;20188;-67
2022/06/22 04:37:41;;;;;;;27.70;19.13;;;;;;;;;;4947924;28;20477;-67
2022/06/22 04:40:22;;;;;;;31.83;20.15;;;;;;;;;;4946844;28;20543;-67
2022/06/22 04:42:50;;;;;;;27.40;17.80;;;;;;;;;;4947135;28;20177;-67
2022/06/22 04:45:26;;;;;;;31.45;19.13;;;;;;;;;;4947026;28;20431;-68
2022/06/22 04:47:52;;;;;;;27.52;19.35;;;;;;;;;;4945882;28;20060;-68
2022/06/22 04:50:19;;;;;;;28.48;19.42;;;;;;;;;;4949058;28;20049;-69
2022/06/22 04:52:48;;;;;;;27.20;18.13;;;;;;;;;;4950831;28;20207;-71
2022/06/22 04:55:16;;;;;;;28.85;19.10;;;;;;;;;;4949105;28;20158;-71
2022/06/22 04:57:42;;;;;;;24.83;17.70;;;;;;;;;;4953847;28;20454;-72
2022/06/22 05:00:20;;;;;;;19.92;15.88;;;;;;;;;;4950352;28;20137;-72
2022/06/22 05:02:52;;;;;;;17.80;14.38;;;;;;;;;;4950282;28;20593;-68
2022/06/22 05:05:22;;;;;;;18.70;11.80;;;;;;;;;;4950748;28;20751;-70
2022/06/22 05:07:50;;;;;;;16.55;10.55;;;;;;;;;;4948368;28;20528;-71
2022/06/22 05:10:22;;;;;;;13.50;8.73;;;;;;;;;;4950195;28;20379;-70
2022/06/22 05:12:49;;;;;;;10.73;7.70;;;;;;;;;;4951220;28;20217;-72
2022/06/22 05:15:23;;;;;;;9.32;7.05;;;;;;;;;;4949489;28;20093;-68
2022/06/22 05:17:51;;;;;;;10.77;6.20;;;;;;;;;;4951135;28;20749;-70
2022/06/22 05:20:20;;;;;;;10.35;5.82;;;;;;;;;;4953950;28;20038;-70
2022/06/22 05:22:47;;;;;;;9.57;5.05;;;;;;;;;;4950112;28;20046;-70
2022/06/22 05:25:18;;;;;;;7.72;4.80;;;;;;;;;;4948694;28;20307;-71
2022/06/22 05:27:44;;;;;;;9.45;4.88;;;;;;;;;;4964241;28;20041;-70
2022/06/22 05:30:09;;;;;;;7.35;4.50;;;;;;;;;;4951100;28;20117;-71
2022/06/22 05:32:38;;;;;;;8.07;4.65;;;;;;;;;;4950350;28;20123;-71
2022/06/22 05:35:09;;;;;;;7.60;3.97;;;;;;;;;;4954036;28;20106;-71
2022/06/22 05:37:39;;;;;;;6.47;3.93;;;;;;;;;;4952523;28;20038;-71
2022/06/22 05:40:07;;;;;;;7.88;3.30;;;;;;;;;;4960121;28;21141;-71
2022/06/22 05:42:34;;;;;;;5.35;2.83;;;;;;;;;;4967871;28;20083;-72
2022/06/22 05:44:59;;;;;;;4.05;2.67;;;;;;;;;;4958450;28;22449;-72
2022/06/22 05:47:27;;;;;;;7.50;2.72;;;;;;;;;;4952738;28;20050;-69
2022/06/22 05:50:14;;;;;;;6.80;2.58;;;;;;;;;;4961366;28;20729;-72
2022/06/22 05:52:43;;;;;;;6.45;2.90;;;;;;;;;;4952831;28;20054;-71
2022/06/22 05:55:14;;;;;;;5.82;2.58;;;;;;;;;;4952406;28;20037;-72
2022/06/22 05:57:45;;;;;;;6.55;2.45;;;;;;;;;;4953605;28;20042;-71
2022/06/22 06:00:19;;;;;;;9.15;2.95;;;;;;;;;;4952293;28;20034;-72
2022/06/22 06:02:54;;;;;;;6.25;2.75;;;;;;;;;;4971912;28;20038;-71
2022/06/22 06:05:25;;;;;;;6.30;2.53;;;;;;;;;;4970776;28;20048;-71
2022/06/22 06:07:53;;;;;;;5.93;3.00;;;;;;;;;;4972075;28;20040;-72
2022/06/22 06:10:25;;;;;;;7.55;2.50;;;;;;;;;;4970477;28;20038;-72
2022/06/22 06:12:50;;;;;;;6.88;3.00;;;;;;;;;;4968585;28;20034;-71
2022/06/22 06:15:16;;;;;;;5.95;2.47;;;;;;;;;;4952521;28;20077;-72
2022/06/22 06:17:43;;;;;;;6.28;2.92;;;;;;;;;;4951573;28;20125;-71
2022/06/22 06:20:19;;;;;;;5.32;2.40;;;;;;;;;;4952419;28;20735;-73
2022/06/22 06:22:44;;;;;;;8.82;2.90;;;;;;;;;;4954556;28;20045;-68
2022/06/22 06:28:02;;;;;;;7.35;2.88;;;;;;;;;;4955543;28;20030;-67
2022/06/22 06:30:31;;;;;;;5.97;2.78;;;;;;;;;;4986366;28;20174;-68
2022/06/22 06:33:18;;;;;;;6.22;2.60;;;;;;;;;;4970359;28;20096;-68
2022/06/22 06:35:51;;;;;;;5.50;2.40;;;;;;;;;;4972287;28;20367;-68
2022/06/22 06:38:33;;;;;;;6.43;2.70;;;;;;;;;;4971700;28;20077;-69
2022/06/22 06:41:05;;;;;;;8.65;2.70;;;;;;;;;;4969113;28;20591;-67
2022/06/22 06:43:30;;;;;;;5.80;2.75;;;;;;;;;;4952449;28;20054;-66
2022/06/22 06:45:56;;;;;;;6.97;2.80;;;;;;;;;;4953638;28;20308;-67
2022/06/22 06:48:23;;;;;;;8.18;2.50;;;;;;;;;;4948802;28;20042;-67
2022/06/22 06:50:50;;;;;;;6.90;2.80;;;;;;;;;;4948150;28;20596;-67
2022/06/22 06:53:18;;;;;;;6.13;2.80;;;;;;;;;;4948939;28;20209;-68
2022/06/22 06:55:46;;;;;;;8.00;3.05;;;;;;;;;;4948266;28;20187;-68
2022/06/22 06:58:31;;;;;;;6.72;2.47;;;;;;;;;;4948851;28;20039;-68
2022/06/22 07:00:59;;;;;;;10.50;3.60;;;;;;;;;;4949592;28;20042;-68
2022/06/22 07:03:28;;;;;;;5.97;3.00;;;;;;;;;;4948499;28;20120;-68
2022/06/22 07:05:53;;;;;;;7.72;3.40;;;;;;;;;;4962272;28;20038;-66
2022/06/22 07:08:28;;;;;;;8.15;3.45;;;;;;;;;;4948186;28;20844;-67
2022/06/22 07:10:56;;;;;;;6.82;3.40;;;;;;;;;;4952357;28;20048;-68
2022/06/22 07:13:43;;;;;;;6.18;3.10;;;;;;;;;;4953846;28;20892;-67
2022/06/22 07:16:12;;;;;;;6.95;2.63;;;;;;;;;;4952427;28;20041;-67
2022/06/22 07:18:43;;;;;;;6.43;2.88;;;;;;;;;;4951084;28;20046;-67
2022/06/22 07:21:16;;;;;;;6.25;2.90;;;;;;;;;;4951367;28;20623;-67
2022/06/22 07:23:47;;;;;;;6.90;2.80;;;;;;;;;;4952148;28;20056;-66
2022/06/22 07:26:19;;;;;;;6.43;2.90;;;;;;;;;;4965178;28;20852;-66
2022/06/22 07:28:49;;;;;;;5.72;2.60;;;;;;;;;;4952215;28;20045;-67
2022/06/22 07:31:18;;;;;;;7.70;2.70;;;;;;;;;;4952179;28;20030;-70
2022/06/22 07:33:43;;;;;;;6.57;2.75;;;;;;;;;;4951303;28;20863;-72
2022/06/22 07:36:17;;;;;;;6.32;2.60;;;;;;;;;;4951388;28;20030;-65
2022/06/22 07:39:01;;;;;;;6.15;3.08;;;;;;;;;;4951359;28;20041;-68
2022/06/22 07:41:29;;;;;;;7.03;2.80;;;;;;;;;;4951105;28;20042;-65
2022/06/22 07:44:04;;;;;;;5.60;2.63;;;;;;;;;;4965339;28;20832;-66
2022/06/22 07:46:33;;;;;;;7.93;2.20;;;;;;;;;;4966846;28;20041;-66
2022/06/22 07:49:04;;;;;;;5.28;2.17;;;;;;;;;;4950918;28;20240;-66
2022/06/22 07:51:31;;;;;;;13.52;2.90;;;;;;;;;;4964670;28;20034;-66
2022/06/22 07:54:01;;;;;;;6.95;2.00;;;;;;;;;;4950753;28;20038;-65
2022/06/22 07:56:39;;;;;;;6.55;2.15;;;;;;;;;;4953193;28;20137;-66
2022/06/22 07:59:12;;;;;;;6.35;2.17;;;;;;;;;;4951125;28;20180;-66
2022/06/22 08:01:39;;;;;;;7.57;2.35;;;;;;;;;;4968993;28;20048;-66
2022/06/22 08:04:22;;;;;;;6.30;2.47;;;;;;;;;;4970069;28;20045;-65
2022/06/22 08:06:54;;;;;;;5.43;2.03;;;;;;;;;;4970782;28;20096;-65
2022/06/22 08:09:26;;;;;;;5.43;2.05;;;;;;;;;;4970739;28;20030;-66
2022/06/22 08:11:57;;;;;;;6.03;2.20;;;;;;;;;;4971661;28;20041;-66
2022/06/22 08:14:29;;;;;;;4.07;1.90;;;;;;;;;;4970116;28;20133;-66
2022/06/22 08:16:58;;;;;;;6.65;2.28;;;;;;;;;;4950978;28;20772;-65
2022/06/22 08:19:27;;;;;;;5.43;2.30;;;;;;;;;;4949442;28;20096;-66
2022/06/22 08:21:53;;;;;;;4.57;1.83;;;;;;;;;;4951619;28;20122;-66
2022/06/22 08:24:20;;;;;;;6.30;2.05;;;;;;;;;;4965103;28;20056;-66
2022/06/22 08:26:46;;;;;;;5.07;2.03;;;;;;;;;;4954184;28;20620;-66
2022/06/22 08:29:14;;;;;;;5.05;2.03;;;;;;;;;;4954413;28;21137;-66
2022/06/22 08:31:54;;;;;;;5.15;2.30;;;;;;;;;;4953788;28;20875;-67
2022/06/22 08:34:29;;;;;;;5.47;1.92;;;;;;;;;;4954642;28;20113;-70
2022/06/22 08:36:57;;;;;;;5.95;2.13;;;;;;;;;;4954959;28;20180;-65
2022/06/22 08:39:27;;;;;;;4.47;2.03;;;;;;;;;;4959590;28;20077;-65
2022/06/22 08:41:57;;;;;;;5.28;2.33;;;;;;;;;;4968278;28;20042;-66
2022/06/22 08:44:32;;;;;;;5.60;2.03;;;;;;;;;;4954808;28;20170;-65
2022/06/22 08:46:57;;;;;;;5.45;2.10;;;;;;;;;;4956133;28;20046;-65
2022/06/22 08:49:26;;;;;;;10.90;2.00;;;;;;;;;;4953967;28;20038;-65
2022/06/22 08:52:00;;;;;;;6.15;2.10;;;;;;;;;;4954383;28;21255;-65
2022/06/22 08:54:37;;;;;;;5.40;2.40;;;;;;;;;;4954022;28;20045;-65
2022/06/22 08:57:25;;;;;;;5.00;2.20;;;;;;;;;;4953743;28;20050;-65
2022/06/22 08:59:50;;;;;;;6.57;2.60;;;;;;;;;;4953450;28;20736;-67
2022/06/22 09:02:21;;;;;;;6.65;2.08;;;;;;;;;;4954029;28;20039;-65
2022/06/22 09:04:57;;;;;;;6.65;2.63;;;;;;;;;;4953544;28;20030;-66
2022/06/22 09:07:40;;;;;;;7.43;2.40;;;;;;;;;;4957596;28;20034;-65
2022/06/22 09:10:34;;;;;;;5.10;2.10;;;;;;;;;;4964112;28;20060;-66
2022/06/22 09:13:25;;;;;;;5.18;2.10;;;;;;;;;;4955783;28;21002;-65
2022/06/22 09:16:09;;;;;;;5.35;2.30;;;;;;;;;;4949615;28;20450;-65
2022/06/22 09:18:44;;;;;;;6.93;2.42;;;;;;;;;;4968288;28;20056;-65
2022/06/22 09:21:09;;;;;;;5.45;2.30;;;;;;;;;;4973342;28;20033;-65
2022/06/22 09:23:37;;;;;;;4.13;2.22;;;;;;;;;;4988273;28;20159;-65
2022/06/22 09:26:09;;;;;;;7.00;2.15;;;;;;;;;;4987141;28;22279;-65
2022/06/22 09:28:34;;;;;;;;;;;;;;;;;;4973200;28;20141;-66
2022/06/22 09:30:59;;;;;;;5.10;2.35;;;;;;;;;;4973563;28;20464;-65
2022/06/22 09:33:43;;;;;;;5.70;2.33;;;;;;;;;;4973118;28;20049;-66
2022/06/22 09:36:20;;;;;;;6.30;2.67;;;;;;;;;;4977209;28;20576;-65
2022/06/22 09:39:06;;;;;;;5.70;2.45;;;;;;;;;;4973196;28;20034;-65
2022/06/22 09:41:31;;;;;;;8.55;3.05;;;;;;;;;;4973388;28;20124;-65
2022/06/22 09:44:04;;;;;;;7.07;3.45;;;;;;;;;;4987600;28;20064;-66
2022/06/22 09:46:41;;;;;;;9.85;3.70;;;;;;;;;;4955632;28;20114;-66
2022/06/22 09:49:25;;;;;;;6.75;3.85;;;;;;;;;;4952598;28;20794;-66
2022/06/22 09:51:53;;;;;;;9.68;4.00;;;;;;;;;;4984369;28;20042;-66
2022/06/22 09:57:21;;;;;;;12.50;7.00;;;;;;;;;;4971724;28;20637;-66
2022/06/22 09:59:49;;;;;;;10.60;6.20;;;;;;;;;;4971099;28;20037;-66
2022/06/22 10:02:20;;;;;;;12.88;6.20;;;;;;;;;;4977817;28;20411;-66
2022/06/22 10:04:49;;;;;;;11.98;6.50;;;;;;;;;;4965539;28;20039;-66
2022/06/22 10:07:23;;;;;;;11.43;6.07;;;;;;;;;;4953004;28;20041;-66
2022/06/22 10:09:49;;;;;;;12.48;6.22;;;;;;;;;;4953069;28;20130;-66
2022/06/22 10:12:15;;;;;;;10.35;5.85;;;;;;;;;;4952498;28;20204;-67
2022/06/22 10:15:06;;;;;;;12.35;6.20;;;;;;;;;;4952430;28;20034;-67
2022/06/22 10:17:59;;;;;;;9.60;5.45;;;;;;;;;;4958883;28;20129;-65
2022/06/22 10:20:45;;;;;;;11.90;5.57;;;;;;;;;;4952350;28;20038;-66
2022/06/22 10:23:33;;;;;;;11.63;6.28;;;;;;;;;;4957031;28;20205;-66
2022/06/22 10:26:13;;;;;;;11.52;5.82;;;;;;;;;;4952759;28;20076;-66
2022/06/22 10:28:51;;;;;;;8.63;4.78;;;;;;;;;;4951270;28;20105;-65
2022/06/22 10:31:34;;;;;;;8.85;4.78;;;;;;;;;;4952496;28;20035;-67
2022/06/22 10:34:12;;;;;;;11.32;5.13;;;;;;;;;;4950329;28;20038;-65
2022/06/22 10:36:52;;;;;;;8.65;4.53;;;;;;;;;;4951606;28;20034;-64
2022/06/22 10:39:27;;;;;;;9.13;4.20;;;;;;;;;;4952744;28;20057;-64
2022/06/22 10:47:47;;;;;;;6.78;3.10;;;;;;;;;;4969891;28;20046;-65
2022/06/22 10:50:22;;;;;;;8.32;3.65;;;;;;;;;;4971603;28;20048;-66
2022/06/22 10:52:57;;;;;;;5.68;2.35;;;;;;;;;;4965423;28;20053;-66
2022/06/22 10:55:33;;;;;;;6.22;2.60;;;;;;;;;;4970752;28;20785;-67
2022/06/22 10:58:15;;;;;;;7.43;3.13;;;;;;;;;;4967404;28;20831;-66
2022/06/22 11:00:44;;;;;;;7.03;2.78;;;;;;;;;;4951627;28;20898;-67
2022/06/22 11:03:19;;;;;;;8.48;2.97;;;;;;;;;;4951239;28;20046;-65
2022/06/22 11:06:04;;;;;;;5.90;2.90;;;;;;;;;;4949348;28;20038;-66
2022/06/22 11:08:40;;;;;;;6.28;2.42;;;;;;;;;;4966632;28;20033;-66
2022/06/22 11:11:34;;;;;;;7.28;2.65;;;;;;;;;;4967560;28;20042;-65
2022/06/22 11:14:06;;;;;;;5.15;2.38;;;;;;;;;;4964833;28;20057;-67
2022/06/22 11:16:31;;;;;;;;;;;;;;;;;;4967339;28;20581;-67
2022/06/22 11:19:16;;;;;;;4.45;1.70;;;;;;;;;;4967477;28;20248;-67
2022/06/22 11:22:06;;;;;;;4.85;2.10;;;;;;;;;;4967075;28;20067;-67
2022/06/22 11:24:47;;;;;;;4.68;1.88;;;;;;;;;;4966686;28;20572;-66
2022/06/22 11:33:11;;;;;;;6.45;2.33;;;;;;;;;;4967760;28;20037;-65
2022/06/22 11:35:44;;;;;;;6.22;2.03;;;;;;;;;;4966958;28;20670;-66
2022/06/22 11:38:15;;;;;;;5.20;1.75;;;;;;;;;;4968360;28;20107;-65
2022/06/22 11:40:41;;;;;;;;;;;;;;;;;;4968709;28;20042;-66
2022/06/22 11:43:06;;;;;;;;;;;;;;;;;;4983608;28;19929;-65
2022/06/22 11:45:54;;;;;;;;;;;;;;;;;;4969356;28;20637;-66
2022/06/22 11:48:24;;;;;;;;;;;;;;;;;;4969833;28;19996;-64
2022/06/22 11:50:49;;;;;;;;;;;;;;;;;;4969366;28;20099;-66
2022/06/22 11:53:14;;;;;;;;;;;;;;;;;;4968918;28;19935;-63
2022/06/22 11:55:40;;;;;;;;;;;;;;;;;;4964742;28;23770;-66
2022/06/22 11:58:06;;;;;;;;;;;;;;;;;;4949228;28;19920;-66
2022/06/22 12:00:31;;;;;;;;;;;;;;;;;;4953603;28;19945;-66
2022/06/22 12:02:56;;;;;;;;;;;;;;;;;;4954627;28;19965;-66
2022/06/22 12:05:22;;;;;;;;;;;;;;;;;;4955699;28;19917;-66
2022/06/22 12:07:49;;;;;;;;;;;;;;;;;;4969855;28;19914;-66
2022/06/22 12:10:17;;;;;;;;;;;;;;;;;;4955282;28;19988;-66
2022/06/22 12:12:46;;;;;;;;;;;;;;;;;;4955242;28;20830;-66
2022/06/22 12:15:12;;;;;;;;;;;;;;;;;;4954706;28;19945;-64
2022/06/22 12:17:37;;;;;;;;;;;;;;;;;;4955057;28;19925;-65
2022/06/22 12:20:05;;;;;;;;;;;;;;;;;;4955405;28;19914;-67
2022/06/22 12:22:32;;;;;;;;;;;;;;;;;;4955187;28;19967;-66
2022/06/22 12:24:57;;;;;;;;;;;;;;;;;;4956417;28;19918;-66
2022/06/22 12:27:23;;;;;;;;;;;;;;;;;;4955122;28;19926;-66
2022/06/22 12:29:48;;;;;;;;;;;;;;;;;;4955146;28;19917;-67
2022/06/22 12:32:13;;;;;;;;;;;;;;;;;;4955803;28;20012;-68
2022/06/22 12:34:38;;;;;;;;;;;;;;;;;;4955076;28;19924;-67
2022/06/22 12:37:03;;;;;;;;;;;;;;;;;;4956914;28;19964;-67
2022/06/22 12:39:29;;;;;;;;;;;;;;;;;;4949485;28;19922;-68
2022/06/22 12:41:54;;;;;;;;;;;;;;;;;;4965555;28;19968;-68
2022/06/22 12:44:19;;;;;;;;;;;;;;;;;;4955647;28;19929;-67
2022/06/22 12:46:45;;;;;;;;;;;;;;;;;;4958638;28;19921;-68
2022/06/22 12:49:10;;;;;;;;;;;;;;;;;;4964077;28;19914;-69
2022/06/22 12:51:40;;;;;;;;;;;;;;;;;;4974044;28;19921;-67
2022/06/22 12:54:05;;;;;;;;;;;;;;;;;;4969071;28;20735;-68
2022/06/22 12:56:31;;;;;;;;;;;;;;;;;;4965024;28;19913;-67
2022/06/22 12:58:57;;;;;;;;;;;;;;;;;;4966913;28;20823;-67
2022/06/22 13:01:22;;;;;;;;;;;;;;;;;;4964888;28;19921;-69
2022/06/22 13:03:47;;;;;;;;;;;;;;;;;;4956314;28;19922;-67
2022/06/22 13:06:15;;;;;;;;;;;;;;;;;;4957849;28;20714;-67
2022/06/22 13:08:40;;;;;;;;;;;;;;;;;;4963930;28;19917;-68
2022/06/22 13:11:06;;;;;;;;;;;;;;;;;;4958911;28;19945;-67
2022/06/22 13:13:32;;;;;;;;;;;;;;;;;;4974756;28;19917;-69
2022/06/22 13:15:57;;;;;;;;;;;;;;;;;;4974606;28;19921;-66
2022/06/22 13:18:24;;;;;;;;;;;;;;;;;;4974629;28;19913;-69
2022/06/22 13:20:49;;;;;;;;;;;;;;;;;;4975091;28;19994;-68
2022/06/22 13:23:15;;;;;;;;;;;;;;;;;;4983439;28;19921;-71
2022/06/22 13:25:40;;;;;;;;;;;;;;;;;;4990085;28;19953;-70
2022/06/22 13:28:05;;;;;;;;;;;;;;;;;;4982744;28;19917;-71
2022/06/22 13:30:30;;;;;;;;;;;;;;;;;;4982901;28;19921;-71
2022/06/22 13:32:56;;;;;;;;;;;;;;;;;;4971153;28;19944;-69
2022/06/22 13:35:23;;;;;;;;;;;;;;;;;;4954918;28;19918;-67
2022/06/22 13:37:49;;;;;;;;;;;;;;;;;;4961526;28;20461;-67
2022/06/22 13:40:14;;;;;;;;;;;;;;;;;;4959172;28;19944;-67
2022/06/22 13:42:42;;;;;;;;;;;;;;;;;;4962754;28;19914;-66
2022/06/22 13:45:07;;;;;;;;;;;;;;;;;;4957538;28;20681;-66
2022/06/22 13:47:32;;;;;;;;;;;;;;;;;;4954854;28;20004;-67
2022/06/22 13:52:42;;;;;;;;;;;;;;;;;;4954094;28;19914;-66
2022/06/22 13:55:09;;;;;;;;;;;;;;;;;;4954232;28;19995;-67
2022/06/22 13:57:34;;;;;;;;;;;;;;;;;;4968288;28;19956;-66
2022/06/22 14:00:00;;;;;;;;;;;;;;;;;;4950343;28;20337;-65
2022/06/22 14:02:25;;;;;;;;;;;;;;;;;;4949321;28;20357;-64
2022/06/22 14:04:53;;;;;;;;;;;;;;;;;;4948970;28;20492;-64
2022/06/22 14:07:18;;;;;;;;;;;;;;;;;;4963017;28;19921;-64
2022/06/22 14:09:44;;;;;;;;;;;;;;;;;;4953717;28;19918;-66
2022/06/22 14:12:09;;;;;;;;;;;;;;;;;;4953881;28;19914;-64
2022/06/22 14:14:34;;;;;;;;;;;;;;;;;;4954060;28;20460;-64
2022/06/22 14:17:00;;;;;;;;;;;;;;;;;;4953375;28;20729;-65
2022/06/22 14:19:25;;;;;;;;;;;;;;;;;;4952773;28;19980;-64
2022/06/22 14:21:50;;;;;;;;;;;;;;;;;;4953171;28;19965;-65
2022/06/22 14:24:16;;;;;;;;;;;;;;;;;;4953142;28;19957;-65
2022/06/22 14:26:41;;;;;;;;;;;;;;;;;;4952939;28;19960;-65
2022/06/22 14:29:06;;;;;;;;;;;;;;;;;;4953601;28;19953;-65
2022/06/22 14:31:31;;;;;;;;;;;;;;;;;;4952885;28;20067;-66
2022/06/22 14:33:56;;;;;;;;;;;;;;;;;;4952492;28;20575;-66
2022/06/22 14:36:22;;;;;;;;;;;;;;;;;;4951038;28;19922;-65
2022/06/22 14:38:47;;;;;;;;;;;;;;;;;;4952709;28;19913;-65
2022/06/22 14:41:13;;;;;;;;;;;;;;;;;;4952697;28;20976;-67
2022/06/22 14:43:38;;;;;;;;;;;;;;;;;;4953415;28;20008;-67
2022/06/22 14:46:03;;;;;;;;;;;;;;;;;;4953032;28;19917;-66
2022/06/22 14:48:30;;;;;;;;;;;;;;;;;;4951704;28;19928;-68
2022/06/22 14:51:00;;;;;;;;;;;;;;;;;;4967142;28;19913;-67
2022/06/22 14:53:25;;;;;;;;;;;;;;;;;;4953001;28;19921;-67
2022/06/22 14:55:53;;;;;;;;;;;;;;;;;;4953059;28;20013;-67
2022/06/22 14:58:18;;;;;;;;;;;;;;;;;;4952658;28;19918;-67
2022/06/22 15:00:46;;;;;;;;;;;;;;;;;;4953036;28;19945;-67
2022/06/22 15:03:11;;;;;;;;;;;;;;;;;;4952686;28;19929;-67
2022/06/22 15:05:36;;;;;;;;;;;;;;;;;;4952535;28;20488;-67
2022/06/22 15:08:01;;;;;;;;;;;;;;;;;;4953105;28;19918;-67
2022/06/22 15:10:27;;;;;;;;;;;;;;;;;;4953415;28;19929;-68
2022/06/22 15:12:58;;;;;;;;;;;;;;;;;;4952426;28;19914;-67
2022/06/22 15:15:23;;;;;;;;;;;;;;;;;;4965559;28;19996;-66
2022/06/22 15:17:49;;;;;;;;;;;;;;;;;;4952983;28;19976;-65
2022/06/22 15:20:14;;;;;;;;;;;;;;;;;;4951574;28;19920;-67
2022/06/22 15:22:39;;;;;;;;;;;;;;;;;;4953548;28;19924;-65
2022/06/22 15:25:06;;;;;;;;;;;;;;;;;;4952666;28;19921;-67
2022/06/22 15:27:32;;;;;;;;;;;;;;;;;;4967692;28;19917;-67
2022/06/22 15:29:57;;;;;;;;;;;;;;;;;;4953651;28;19921;-66
2022/06/22 15:32:22;;;;;;;;;;;;;;;;;;4951663;28;19929;-66
2022/06/22 15:34:47;;;;;;;;;;;;;;;;;;4966332;28;19917;-66
2022/06/22 15:37:12;;;;;;;;;;;;;;;;;;4951833;28;19914;-67
2022/06/22 15:39:37;;;;;;;;;;;;;;;;;;4951711;28;20054;-67
2022/06/22 15:42:03;;;;;;;;;;;;;;;;;;4952698;28;20740;-66
2022/06/22 15:44:29;;;;;;;;;;;;;;;;;;4955453;28;19972;-65
2022/06/22 15:46:56;;;;;;;;;;;;;;;;;;4949844;28;20938;-65
2022/06/22 15:49:22;;;;;;;;;;;;;;;;;;4949699;28;21488;-67
2022/06/22 15:51:49;;;;;;;;;;;;;;;;;;4951072;28;19917;-65